Ty Lotus — DSNU7 — position and weather

sailwx.info

Track history (hours):
 
Tides and Currents Weather Stations Pressure Air Temp Water Temp Dewpoint Dewpoint Depression Visibility Wind Speed Wind Dir Waves Ship Positions

Ty Lotus

Last reported at 2017-Feb-18 12:12 UTC. Time now 2017-Feb-21 08:12 UTC.
Position N 33°50' E 132°19'.

Length 80 m; draft 5.4 m.

Type: Cargo ship. MMSI: 440324000.

Date/timePositionNaut miles runAvg speedWind from/ knotsBaromVisibWave heightAir tempDewpointWater temp
2017-Feb-18 12:12N 33°50' E 132°19'6 9.8
2017-Feb-18 11:33N 33°51' E 132°26'1010.0
2017-Feb-18 10:32N 33°55' E 132°38'  
2017-Feb-16 06:27N 35°12' E 139°45'8 8.7
2017-Feb-16 05:33N 35°19' E 139°43'8 8.4
2017-Feb-16 04:34N 35°27' E 139°47'1010.1
2017-Feb-16 03:33N 35°34' E 139°56'7 0.1
2017-Feb-14 07:07N 35°41' E 139°58'3 5.3
2017-Feb-14 06:31N 35°37' E 139°59'1 0.6
2017-Feb-14 05:14N 35°37' E 139°59'0 0.1
2017-Feb-14 04:25N 35°37' E 139°59'0 0.0
2017-Feb-14 00:10N 35°37' E 139°59'0 0.0
2017-Feb-13 19:16N 35°37' E 139°59'0 0.0
2017-Feb-13 18:25N 35°37' E 139°59'0 0.0
2017-Feb-13 17:28N 35°37' E 139°59'0 0.0
2017-Feb-13 16:31N 35°37' E 139°59'0 0.0
2017-Feb-13 15:13N 35°37' E 139°59'0 0.0
2017-Feb-13 14:28N 35°37' E 139°59'0 0.0
2017-Feb-13 13:31N 35°37' E 139°59'0 0.0
2017-Feb-13 12:16N 35°37' E 139°59'0 0.0
2017-Feb-13 11:19N 35°37' E 139°59'3 0.9
2017-Feb-13 07:25N 35°40' E 139°59'  
2017-Feb-09 21:31N 35°40' E 139°59'4 0.5
2017-Feb-09 13:10N 35°36' E 139°58'0 0.0
2017-Feb-09 12:31N 35°36' E 139°58'0 0.0
2017-Feb-08 16:09N 35°36' E 139°58'6 2.2
2017-Feb-08 13:33N 35°32' E 139°54'1010.0
2017-Feb-08 12:34N 35°24' E 139°46'  
Track history (hours):
 
Tides and Currents Weather Stations Pressure Air Temp Water Temp Dewpoint Dewpoint Depression Visibility Wind Speed Wind Dir Waves Ship Positions

Ty Lotus

Last reported at 2017-Feb-18 12:12 UTC. Time now 2017-Feb-21 08:12 UTC.
Position N 33°50' E 132°19'.

Length 80 m; draft 5.4 m.

Type: Cargo ship. MMSI: 440324000.

Date/timePositionNaut miles runAvg speedWind from/ knotsBaromVisibWave heightAir tempDewpointWater temp
2017-Feb-18 12:12N 33°50' E 132°19'6 9.8
2017-Feb-18 11:33N 33°51' E 132°26'1010.0
2017-Feb-18 10:32N 33°55' E 132°38'  
2017-Feb-16 06:27N 35°12' E 139°45'8 8.7
2017-Feb-16 05:33N 35°19' E 139°43'8 8.4
2017-Feb-16 04:34N 35°27' E 139°47'1010.1
2017-Feb-16 03:33N 35°34' E 139°56'7 0.1
2017-Feb-14 07:07N 35°41' E 139°58'3 5.3
2017-Feb-14 06:31N 35°37' E 139°59'1 0.6
2017-Feb-14 05:14N 35°37' E 139°59'0 0.1
2017-Feb-14 04:25N 35°37' E 139°59'0 0.0
2017-Feb-14 00:10N 35°37' E 139°59'0 0.0
2017-Feb-13 19:16N 35°37' E 139°59'0 0.0
2017-Feb-13 18:25N 35°37' E 139°59'0 0.0
2017-Feb-13 17:28N 35°37' E 139°59'0 0.0
2017-Feb-13 16:31N 35°37' E 139°59'0 0.0
2017-Feb-13 15:13N 35°37' E 139°59'0 0.0
2017-Feb-13 14:28N 35°37' E 139°59'0 0.0
2017-Feb-13 13:31N 35°37' E 139°59'0 0.0
2017-Feb-13 12:16N 35°37' E 139°59'0 0.0
2017-Feb-13 11:19N 35°37' E 139°59'3 0.9
2017-Feb-13 07:25N 35°40' E 139°59'  
2017-Feb-09 21:31N 35°40' E 139°59'4 0.5
2017-Feb-09 13:10N 35°36' E 139°58'0 0.0
2017-Feb-09 12:31N 35°36' E 139°58'0 0.0
2017-Feb-08 16:09N 35°36' E 139°58'6 2.2
2017-Feb-08 13:33N 35°32' E 139°54'1010.0
2017-Feb-08 12:34N 35°24' E 139°46'  

Dump ship's entire track history